createdAt,value
2017-10-09T00:00:24.606Z,4.4
2017-10-09T00:01:27.015Z,4.4
2017-10-09T00:02:29.788Z,4.4
2017-10-09T00:03:32.217Z,4.4
2017-10-09T00:04:34.638Z,4.4
2017-10-09T00:05:37.069Z,4.4
2017-10-09T00:06:39.486Z,4.4
2017-10-09T00:07:41.908Z,4.4
2017-10-09T00:08:44.329Z,4.5
2017-10-09T00:09:46.749Z,4.4
2017-10-09T00:10:49.160Z,4.4
2017-10-09T00:11:51.587Z,4.5
2017-10-09T00:12:54.004Z,4.4
2017-10-09T00:13:56.426Z,4.4
2017-10-09T00:14:58.855Z,4.4
2017-10-09T00:16:01.277Z,4.5
2017-10-09T00:17:03.704Z,4.4
2017-10-09T00:18:06.470Z,4.4
2017-10-09T00:19:08.886Z,4.4
2017-10-09T00:20:11.315Z,4.4
2017-10-09T00:21:13.741Z,4.4
2017-10-09T00:22:16.158Z,4.4
2017-10-09T00:23:18.915Z,4.4
2017-10-09T00:24:21.336Z,4.4
2017-10-09T00:25:23.754Z,4.4
2017-10-09T00:26:26.179Z,4.4
2017-10-09T00:27:28.606Z,4.4
2017-10-09T00:28:31.021Z,4.4
2017-10-09T00:29:33.445Z,4.4
2017-10-09T00:30:35.878Z,4.4
2017-10-09T00:31:38.295Z,4.4
2017-10-09T00:32:40.716Z,4.4
2017-10-09T00:33:43.132Z,4.4
2017-10-09T00:34:45.564Z,4.3
2017-10-09T00:35:47.970Z,4.4
2017-10-09T00:36:50.398Z,4.4
2017-10-09T00:37:52.826Z,4.4
2017-10-09T00:38:55.243Z,4.4
2017-10-09T00:39:57.667Z,4.4
2017-10-09T00:41:00.090Z,4.4
2017-10-09T00:42:02.514Z,4.4
2017-10-09T00:43:05.290Z,4.4
2017-10-09T00:44:07.717Z,4.4
2017-10-09T00:45:10.132Z,4.4
2017-10-09T00:46:12.563Z,4.4
2017-10-09T00:47:15.310Z,4.4
2017-10-09T00:48:17.739Z,4.4
2017-10-09T00:49:20.169Z,4.4
2017-10-09T00:50:22.587Z,4.3
2017-10-09T00:51:25.003Z,4.4
2017-10-09T00:52:27.431Z,4.3
2017-10-09T00:53:29.836Z,4.4
2017-10-09T00:54:32.275Z,4.4
2017-10-09T00:55:34.691Z,4.3
2017-10-09T00:56:37.121Z,4.4
2017-10-09T00:57:39.544Z,4.3
2017-10-09T00:58:41.974Z,4.4
2017-10-09T00:59:44.398Z,4.4
2017-10-09T01:00:46.815Z,4.3
2017-10-09T01:01:49.252Z,4.4
2017-10-09T01:02:51.666Z,4.4
2017-10-09T01:03:54.087Z,4.3
2017-10-09T01:04:56.504Z,4.3
2017-10-09T01:05:58.929Z,4.4
2017-10-09T01:07:01.349Z,4.3
2017-10-09T01:08:03.774Z,4.4
2017-10-09T01:09:06.191Z,4.3
2017-10-09T01:10:08.620Z,4.3
2017-10-09T01:11:11.044Z,4.3
2017-10-09T01:12:13.471Z,4.4
2017-10-09T01:13:15.887Z,4.3
2017-10-09T01:14:18.304Z,4.4
2017-10-09T01:15:21.066Z,4.3
2017-10-09T01:16:23.489Z,4.3
2017-10-09T01:17:25.916Z,4.3
2017-10-09T01:18:28.326Z,4.3
2017-10-09T01:19:30.751Z,4.4
2017-10-09T01:20:33.175Z,4.3
2017-10-09T01:21:35.592Z,4.3
2017-10-09T01:22:38.010Z,4.3
2017-10-09T01:23:40.439Z,4.3
2017-10-09T01:24:42.854Z,4.4
2017-10-09T01:25:45.279Z,4.3
2017-10-09T01:26:47.702Z,4.3
2017-10-09T01:27:50.120Z,4.3
2017-10-09T01:28:52.540Z,4.3
2017-10-09T01:29:54.970Z,4.3
2017-10-09T01:30:57.392Z,4.3
2017-10-09T01:31:59.810Z,4.3
2017-10-09T01:33:02.244Z,4.3
2017-10-09T01:34:04.661Z,4.3
2017-10-09T01:35:07.069Z,4.3
2017-10-09T01:36:09.499Z,4.3
2017-10-09T01:37:12.599Z,4.3
2017-10-09T01:38:15.025Z,4.3
2017-10-09T01:39:17.453Z,4.4
2017-10-09T01:40:19.864Z,4.3
2017-10-09T01:41:22.290Z,4.3
2017-10-09T01:42:24.717Z,4.3
2017-10-09T01:43:27.130Z,4.3
2017-10-09T01:44:29.558Z,4.3
2017-10-09T01:45:31.980Z,4.3
2017-10-09T01:46:34.396Z,4.3
2017-10-09T01:47:36.816Z,4.3
2017-10-09T01:48:39.234Z,4.3
2017-10-09T01:49:41.643Z,4.3
2017-10-09T01:50:44.064Z,4.3
2017-10-09T01:51:46.484Z,4.3
2017-10-09T01:52:48.905Z,4.3
2017-10-09T01:53:51.681Z,4.4
2017-10-09T01:54:54.098Z,4.3
2017-10-09T01:55:56.524Z,4.3
2017-10-09T01:56:58.951Z,4.3
2017-10-09T01:58:01.719Z,4.3
2017-10-09T01:59:04.135Z,4.3
2017-10-09T02:00:06.546Z,4.3
2017-10-09T02:01:08.985Z,4.3
2017-10-09T02:02:11.402Z,4.3
2017-10-09T02:03:13.819Z,4.3
2017-10-09T02:04:16.240Z,4.3
2017-10-09T02:05:18.666Z,4.3
2017-10-09T02:06:21.082Z,4.3
2017-10-09T02:07:23.507Z,4.3
2017-10-09T02:08:25.916Z,4.3
2017-10-09T02:09:28.334Z,4.3
2017-10-09T02:10:30.765Z,4.3
2017-10-09T02:11:33.183Z,4.3
2017-10-09T02:12:35.599Z,4.3
2017-10-09T02:13:38.033Z,4.3
2017-10-09T02:14:40.451Z,4.3
2017-10-09T02:15:42.880Z,4.3
2017-10-09T02:16:45.297Z,4.3
2017-10-09T02:17:47.716Z,4.3
2017-10-09T02:18:50.130Z,4.4
2017-10-09T02:19:52.555Z,4.3
2017-10-09T02:20:54.977Z,4.3
2017-10-09T02:21:57.405Z,4.3
2017-10-09T02:22:59.815Z,4.3
2017-10-09T02:24:02.243Z,4.3
2017-10-09T02:25:04.678Z,4.3
2017-10-09T02:26:07.100Z,4.3
2017-10-09T02:27:09.893Z,4.3
2017-10-09T02:28:12.646Z,4.3
2017-10-09T02:29:15.068Z,4.3
2017-10-09T02:30:17.498Z,4.3
2017-10-09T02:31:20.251Z,4.3
2017-10-09T02:32:22.677Z,4.3
2017-10-09T02:33:25.448Z,4.3
2017-10-09T02:34:27.854Z,4.3
2017-10-09T02:35:30.288Z,4.3
2017-10-09T02:36:32.702Z,4.3
2017-10-09T02:37:35.125Z,4.3
2017-10-09T02:38:37.545Z,4.3
2017-10-09T02:39:39.968Z,4.3
2017-10-09T02:40:42.380Z,4.3
2017-10-09T02:41:45.162Z,4.3
2017-10-09T02:42:47.583Z,4.2
2017-10-09T02:43:51.047Z,4.3
2017-10-09T02:44:53.818Z,4.3
2017-10-09T02:45:56.234Z,4.3
2017-10-09T02:46:58.660Z,4.3
2017-10-09T02:48:01.075Z,4.3
2017-10-09T02:49:03.498Z,4.3
2017-10-09T02:50:05.929Z,4.3
2017-10-09T02:51:08.346Z,4.3
2017-10-09T02:52:11.452Z,4.3
2017-10-09T02:53:13.868Z,4.3
2017-10-09T02:54:16.289Z,4.2
2017-10-09T02:55:18.709Z,4.3
2017-10-09T02:56:21.134Z,4.3
2017-10-09T02:57:23.544Z,4.3
2017-10-09T02:58:25.963Z,4.3
2017-10-09T02:59:28.392Z,4.2
2017-10-09T03:00:30.814Z,4.3
2017-10-09T03:01:33.240Z,4.3
2017-10-09T03:02:35.661Z,4.3
2017-10-09T03:03:38.080Z,4.2
2017-10-09T03:04:40.505Z,4.2
2017-10-09T03:05:42.925Z,4.2
2017-10-09T03:06:45.350Z,4.3
2017-10-09T03:07:47.776Z,4.2
2017-10-09T03:08:50.194Z,4.3
2017-10-09T03:09:52.622Z,4.3
2017-10-09T03:10:55.043Z,4.2
2017-10-09T03:11:57.467Z,4.3
2017-10-09T03:12:59.889Z,4.2
2017-10-09T03:14:02.310Z,4.2
2017-10-09T03:15:05.078Z,4.2
2017-10-09T03:16:07.864Z,4.3
2017-10-09T03:17:10.288Z,4.2
2017-10-09T03:18:12.717Z,4.2
2017-10-09T03:19:15.143Z,4.3
2017-10-09T03:20:17.558Z,4.2
2017-10-09T03:21:19.989Z,4.2
2017-10-09T03:22:22.404Z,4.3
2017-10-09T03:23:24.823Z,4.2
2017-10-09T03:24:27.245Z,4.2
2017-10-09T03:25:29.663Z,4.2
2017-10-09T03:26:32.088Z,4.2
2017-10-09T03:27:34.509Z,4.2
2017-10-09T03:28:36.933Z,4.2
2017-10-09T03:29:39.355Z,4.3
2017-10-09T03:30:41.779Z,4.3
2017-10-09T03:31:44.548Z,4.2
2017-10-09T03:32:46.971Z,4.2
2017-10-09T03:33:49.387Z,4.2
2017-10-09T03:34:51.816Z,4.2
2017-10-09T03:35:54.234Z,4.2
2017-10-09T03:36:56.662Z,4.2
2017-10-09T03:37:59.083Z,4.2
2017-10-09T03:39:01.513Z,4.3
2017-10-09T03:40:03.931Z,4.2
2017-10-09T03:41:06.362Z,4.3
2017-10-09T03:42:08.781Z,4.2
2017-10-09T03:43:11.543Z,4.3
2017-10-09T03:44:13.964Z,4.2
2017-10-09T03:45:16.397Z,4.2
2017-10-09T03:46:18.818Z,4.2
2017-10-09T03:47:21.252Z,4.3
2017-10-09T03:48:23.660Z,4.3
2017-10-09T03:49:26.086Z,4.2
2017-10-09T03:50:28.507Z,4.2
2017-10-09T03:51:30.918Z,4.3
2017-10-09T03:52:33.326Z,4.2
2017-10-09T03:53:35.753Z,4.3
2017-10-09T03:54:38.504Z,4.2
2017-10-09T03:55:40.941Z,4.3
2017-10-09T03:56:43.360Z,4.2
2017-10-09T03:57:45.778Z,4.2
2017-10-09T03:58:48.206Z,4.2
2017-10-09T03:59:50.624Z,4.3
2017-10-09T04:00:53.045Z,4.3
2017-10-09T04:01:55.462Z,4.3
2017-10-09T04:02:57.888Z,4.3
2017-10-09T04:04:00.309Z,4.2
2017-10-09T04:05:02.731Z,4.3
2017-10-09T04:06:05.150Z,4.3
2017-10-09T04:07:07.922Z,4.2
2017-10-09T04:08:10.338Z,4.2
2017-10-09T04:09:12.765Z,4.2
2017-10-09T04:10:15.185Z,4.2
2017-10-09T04:11:17.604Z,4.2
2017-10-09T04:12:20.022Z,4.2
2017-10-09T04:13:22.443Z,4.2
2017-10-09T04:14:24.858Z,4.2
2017-10-09T04:15:27.284Z,4.2
2017-10-09T04:16:29.702Z,4.3
2017-10-09T04:17:32.122Z,4.2
2017-10-09T04:18:34.543Z,4.2
2017-10-09T04:19:36.962Z,4.2
2017-10-09T04:20:39.372Z,4.3
2017-10-09T04:21:42.146Z,4.2
2017-10-09T04:22:44.563Z,4.2
2017-10-09T04:23:46.983Z,4.2
2017-10-09T04:24:49.409Z,4.2
2017-10-09T04:25:52.174Z,4.2
2017-10-09T04:26:54.588Z,4.2
2017-10-09T04:27:57.010Z,4.2
2017-10-09T04:28:59.437Z,4.2
2017-10-09T04:30:01.854Z,4.2
2017-10-09T04:31:04.270Z,4.2
2017-10-09T04:32:06.715Z,4.2
2017-10-09T04:33:09.124Z,4.2
2017-10-09T04:34:11.544Z,4.2
2017-10-09T04:35:13.971Z,4.2
2017-10-09T04:36:16.391Z,4.2
2017-10-09T04:37:18.809Z,4.2
2017-10-09T04:38:21.588Z,4.2
2017-10-09T04:39:23.999Z,4.2
2017-10-09T04:40:26.424Z,4.2
2017-10-09T04:41:29.515Z,4.2
2017-10-09T04:42:31.931Z,4.2
2017-10-09T04:43:34.360Z,4.2
2017-10-09T04:44:36.783Z,4.2
2017-10-09T04:45:39.187Z,4.2
2017-10-09T04:46:41.617Z,4.2
2017-10-09T04:47:44.039Z,4.2
2017-10-09T04:48:46.456Z,4.2
2017-10-09T04:49:49.238Z,4.2
2017-10-09T04:50:52.002Z,4.1
2017-10-09T04:51:54.416Z,4.1
2017-10-09T04:52:56.851Z,4.2
2017-10-09T04:53:59.271Z,4.2
2017-10-09T04:55:02.042Z,4.2
2017-10-09T04:56:04.461Z,4.2
2017-10-09T04:57:06.884Z,4.1
2017-10-09T04:58:09.303Z,4.1
2017-10-09T04:59:11.718Z,4.2
2017-10-09T05:00:14.148Z,4.1
2017-10-09T05:01:16.569Z,4.1
2017-10-09T05:02:18.983Z,4.1
2017-10-09T05:03:21.410Z,4.1
2017-10-09T05:04:23.836Z,4.1
2017-10-09T05:05:26.248Z,4.2
2017-10-09T05:06:28.664Z,4.1
2017-10-09T05:07:31.088Z,4.1
2017-10-09T05:08:33.504Z,4.1
2017-10-09T05:09:35.925Z,4.1
2017-10-09T05:10:38.347Z,4.2
2017-10-09T05:11:40.786Z,4.2
2017-10-09T05:12:43.214Z,4.2
2017-10-09T05:13:45.634Z,4.1
2017-10-09T05:14:48.049Z,4.2
2017-10-09T05:15:50.470Z,4.2
2017-10-09T05:16:52.884Z,4.2
2017-10-09T05:17:55.297Z,4.2
2017-10-09T05:18:57.734Z,4.2
2017-10-09T05:20:00.146Z,4.1
2017-10-09T05:21:02.570Z,4.2
2017-10-09T05:22:04.995Z,4.1
2017-10-09T05:23:07.410Z,4.1
2017-10-09T05:24:09.831Z,4.1
2017-10-09T05:25:12.256Z,4.1
2017-10-09T05:26:14.667Z,4.1
2017-10-09T05:27:17.089Z,4.2
2017-10-09T05:28:19.508Z,4.1
2017-10-09T05:29:22.278Z,4.1
2017-10-09T05:30:24.688Z,4.1
2017-10-09T05:31:27.113Z,4.1
2017-10-09T05:32:29.539Z,4.1
2017-10-09T05:33:31.958Z,4.2
2017-10-09T05:34:34.379Z,4.1
2017-10-09T05:35:36.795Z,4.2
2017-10-09T05:36:39.206Z,4.1
2017-10-09T05:37:41.643Z,4.1
2017-10-09T05:38:44.059Z,4.2
2017-10-09T05:39:46.827Z,4.1
2017-10-09T05:40:49.246Z,4.2
2017-10-09T05:41:51.671Z,4.1
2017-10-09T05:42:54.092Z,4.1
2017-10-09T05:43:56.505Z,4.1
2017-10-09T05:44:58.913Z,4.1
2017-10-09T05:46:01.336Z,4.1
2017-10-09T05:47:03.754Z,4.2
2017-10-09T05:48:06.180Z,4.1
2017-10-09T05:49:08.599Z,4.1
2017-10-09T05:50:11.014Z,4.1
2017-10-09T05:51:13.443Z,4.1
2017-10-09T05:52:15.866Z,4.2
2017-10-09T05:53:18.281Z,4.1
2017-10-09T05:54:20.695Z,4.1
2017-10-09T05:55:23.109Z,4.1
2017-10-09T05:56:25.534Z,4.2
2017-10-09T05:57:27.952Z,4.1
2017-10-09T05:58:30.377Z,4.2
2017-10-09T05:59:32.791Z,4.2
2017-10-09T06:00:35.218Z,4.2
2017-10-09T06:01:37.635Z,4.2
2017-10-09T06:02:40.053Z,4.2
2017-10-09T06:03:42.821Z,4.2
2017-10-09T06:04:45.237Z,4.2
2017-10-09T06:05:47.653Z,4.2
2017-10-09T06:06:50.077Z,4.2
2017-10-09T06:07:52.493Z,4.2
2017-10-09T06:08:54.914Z,4.2
2017-10-09T06:09:57.347Z,4.2
2017-10-09T06:10:59.760Z,4.2
2017-10-09T06:12:02.181Z,4.2
2017-10-09T06:13:04.608Z,4.2
2017-10-09T06:14:07.032Z,4.2
2017-10-09T06:15:09.462Z,4.2
2017-10-09T06:16:11.886Z,4.2
2017-10-09T06:17:14.305Z,4.2
2017-10-09T06:18:16.724Z,4.2
2017-10-09T06:19:19.494Z,4.2
2017-10-09T06:20:21.902Z,4.2
2017-10-09T06:21:24.669Z,4.2
2017-10-09T06:22:27.090Z,4.2
2017-10-09T06:23:29.517Z,4.2
2017-10-09T06:24:31.930Z,4.2
2017-10-09T06:25:34.354Z,4.2
2017-10-09T06:26:36.777Z,4.2
2017-10-09T06:27:39.194Z,4.2
2017-10-09T06:28:41.621Z,4.2
2017-10-09T06:29:44.038Z,4.2
2017-10-09T06:30:46.462Z,4.2
2017-10-09T06:31:48.871Z,4.2
2017-10-09T06:32:51.305Z,4.2
2017-10-09T06:33:53.714Z,4.2
2017-10-09T06:34:56.146Z,4.3
2017-10-09T06:35:58.562Z,4.2
2017-10-09T06:37:00.985Z,4.2
2017-10-09T06:38:03.757Z,4.3
2017-10-09T06:39:06.182Z,4.3
2017-10-09T06:40:08.601Z,4.2
2017-10-09T06:41:11.029Z,4.2
2017-10-09T06:42:13.446Z,4.3
2017-10-09T06:43:15.871Z,4.3
2017-10-09T06:44:18.298Z,4.3
2017-10-09T06:45:21.058Z,4.3
2017-10-09T06:46:23.474Z,4.3
2017-10-09T06:47:25.903Z,4.3
2017-10-09T06:48:28.322Z,4.3
2017-10-09T06:49:30.744Z,4.3
2017-10-09T06:50:33.171Z,4.3
2017-10-09T06:51:35.582Z,4.3
2017-10-09T06:52:38.014Z,4.3
2017-10-09T06:53:40.435Z,4.3
2017-10-09T06:54:42.853Z,4.3
2017-10-09T06:55:45.274Z,4.3
2017-10-09T06:56:47.696Z,4.3
2017-10-09T06:57:50.118Z,4.3
2017-10-09T06:58:52.533Z,4.3
2017-10-09T06:59:54.948Z,4.4
2017-10-09T07:00:57.376Z,4.3
2017-10-09T07:01:59.792Z,4.3
2017-10-09T07:03:02.221Z,4.3
2017-10-09T07:04:04.645Z,4.3
2017-10-09T07:05:07.472Z,4.3
2017-10-09T07:06:10.347Z,4.3
2017-10-09T07:07:12.784Z,4.3
2017-10-09T07:08:15.197Z,4.4
2017-10-09T07:09:17.626Z,4.3
2017-10-09T07:10:20.052Z,4.4
2017-10-09T07:11:22.473Z,4.4
2017-10-09T07:12:24.901Z,4.4
2017-10-09T07:13:27.318Z,4.5
2017-10-09T07:14:29.744Z,4.5
2017-10-09T07:15:32.172Z,4.4
2017-10-09T07:16:34.588Z,4.5
2017-10-09T07:17:37.346Z,4.4
2017-10-09T07:18:39.786Z,4.4
2017-10-09T07:19:42.208Z,4.5
2017-10-09T07:20:44.630Z,4.5
2017-10-09T07:21:47.401Z,4.5
2017-10-09T07:22:49.825Z,4.5
2017-10-09T07:23:52.245Z,4.5
2017-10-09T07:24:54.682Z,4.5
2017-10-09T07:25:57.095Z,4.5
2017-10-09T07:26:59.524Z,4.5
2017-10-09T07:28:01.941Z,4.5
2017-10-09T07:29:04.367Z,4.5
2017-10-09T07:30:06.787Z,4.6
2017-10-09T07:31:09.212Z,4.6
2017-10-09T07:32:11.644Z,4.6
2017-10-09T07:33:14.063Z,4.6
2017-10-09T07:34:16.483Z,4.6
2017-10-09T07:35:19.247Z,4.6
2017-10-09T07:36:21.674Z,4.6
2017-10-09T07:37:24.114Z,4.6
2017-10-09T07:38:26.527Z,4.6
2017-10-09T07:39:28.943Z,4.7
2017-10-09T07:40:31.368Z,4.7
2017-10-09T07:41:33.795Z,4.7
2017-10-09T07:42:36.211Z,4.7
2017-10-09T07:43:38.657Z,4.7
2017-10-09T07:44:41.077Z,4.8
2017-10-09T07:45:43.500Z,4.7
2017-10-09T07:46:45.930Z,4.8
2017-10-09T07:47:48.732Z,4.8
2017-10-09T07:48:51.165Z,4.8
2017-10-09T07:49:53.606Z,4.8
2017-10-09T07:50:56.021Z,4.9
2017-10-09T07:51:58.450Z,4.9
2017-10-09T07:53:00.896Z,4.9
2017-10-09T07:54:03.328Z,5
2017-10-09T07:55:05.758Z,5
2017-10-09T07:56:08.173Z,5
2017-10-09T07:57:10.600Z,5
2017-10-09T07:58:13.380Z,5
2017-10-09T07:59:15.806Z,5
2017-10-09T08:00:18.240Z,5
2017-10-09T08:01:21.010Z,5
2017-10-09T08:02:23.445Z,5
2017-10-09T08:03:25.883Z,5
2017-10-09T08:04:28.321Z,5.1
2017-10-09T08:05:30.739Z,5.1
2017-10-09T08:06:33.177Z,5.1
2017-10-09T08:07:35.611Z,5.1
2017-10-09T08:08:38.035Z,5.1
2017-10-09T08:09:40.467Z,5.2
2017-10-09T08:10:42.897Z,5.1
2017-10-09T08:11:45.321Z,5.1
2017-10-09T08:12:47.749Z,5.2
2017-10-09T08:13:50.177Z,5.1
2017-10-09T08:14:52.608Z,5.2
2017-10-09T08:15:55.037Z,5.1
2017-10-09T08:16:57.482Z,5.1
2017-10-09T08:18:00.246Z,5.2
2017-10-09T08:19:02.683Z,5.1
2017-10-09T08:20:05.106Z,5.2
2017-10-09T08:21:07.536Z,5.1
2017-10-09T08:22:10.307Z,5.1
2017-10-09T08:23:12.740Z,5.1
2017-10-09T08:24:15.166Z,5.1
2017-10-09T08:25:17.600Z,5.2
2017-10-09T08:26:20.034Z,5.1
2017-10-09T08:27:22.805Z,5.1
2017-10-09T08:28:25.229Z,5.1
2017-10-09T08:29:27.668Z,5.1
2017-10-09T08:30:30.097Z,5.2
2017-10-09T08:31:32.528Z,5.2
2017-10-09T08:32:34.955Z,5.2
2017-10-09T08:33:37.384Z,5.1
2017-10-09T08:34:39.810Z,5.1
2017-10-09T08:35:42.246Z,5.1
2017-10-09T08:36:44.671Z,5.1
2017-10-09T08:37:47.099Z,5.1
2017-10-09T08:38:49.533Z,5.1
2017-10-09T08:39:51.963Z,5.1
2017-10-09T08:40:54.408Z,5.1
2017-10-09T08:41:56.833Z,5.1
2017-10-09T08:42:59.258Z,5.2
2017-10-09T08:44:01.690Z,5.1
2017-10-09T08:45:04.122Z,5.1
2017-10-09T08:46:06.553Z,5.1
2017-10-09T08:47:08.993Z,5.1
2017-10-09T08:48:11.424Z,5.1
2017-10-09T08:49:13.842Z,5.1
2017-10-09T08:50:16.280Z,5.1
2017-10-09T08:51:18.704Z,5.1
2017-10-09T08:52:21.132Z,5.1
2017-10-09T08:53:23.566Z,5.1
2017-10-09T08:54:25.992Z,5.1
2017-10-09T08:55:28.426Z,5.3
2017-10-09T08:56:30.870Z,5.3
2017-10-09T08:57:33.305Z,5.2
2017-10-09T08:58:35.740Z,5.2
2017-10-09T08:59:38.165Z,5.3
2017-10-09T09:00:40.595Z,5.2
2017-10-09T09:01:43.026Z,5.2
2017-10-09T09:02:45.457Z,5.2
2017-10-09T09:03:47.893Z,5.2
2017-10-09T09:04:52.442Z,5.3
2017-10-09T09:05:54.884Z,5.3
2017-10-09T09:06:57.312Z,5.2
2017-10-09T09:07:59.748Z,5.3
2017-10-09T09:09:02.537Z,5.3
2017-10-09T09:10:04.976Z,5.3
2017-10-09T09:11:07.401Z,5.3
2017-10-09T09:12:09.839Z,5.2
2017-10-09T09:13:12.283Z,5.3
2017-10-09T09:14:14.712Z,5.3
2017-10-09T09:15:17.150Z,5.3
2017-10-09T09:16:19.591Z,5.3
2017-10-09T09:17:22.022Z,5.4
2017-10-09T09:18:24.448Z,5.3
2017-10-09T09:19:26.879Z,5.4
2017-10-09T09:20:29.307Z,5.4
2017-10-09T09:21:31.753Z,5.4
2017-10-09T09:22:34.187Z,5.5
2017-10-09T09:23:36.608Z,5.5
2017-10-09T09:24:39.047Z,5.4
2017-10-09T09:25:41.482Z,5.4
2017-10-09T09:26:43.908Z,5.5
2017-10-09T09:27:46.344Z,5.5
2017-10-09T09:28:48.787Z,5.5
2017-10-09T09:29:51.557Z,5.5
2017-10-09T09:30:53.987Z,5.5
2017-10-09T09:31:56.450Z,5.4
2017-10-09T09:32:58.888Z,5.4
2017-10-09T09:34:01.324Z,5.4
2017-10-09T09:35:03.766Z,5.4
2017-10-09T09:36:06.205Z,5.4
2017-10-09T09:37:08.629Z,5.4
2017-10-09T09:38:11.411Z,5.4
2017-10-09T09:39:13.830Z,5.4
2017-10-09T09:40:16.262Z,5.3
2017-10-09T09:41:18.690Z,5.3
2017-10-09T09:42:21.120Z,5.4
2017-10-09T09:43:23.546Z,5.4
2017-10-09T09:44:25.982Z,5.3
2017-10-09T09:45:28.412Z,5.3
2017-10-09T09:46:30.848Z,5.4
2017-10-09T09:47:33.276Z,5.3
2017-10-09T09:48:35.713Z,5.4
2017-10-09T09:49:38.150Z,5.4
2017-10-09T09:50:40.581Z,5.4
2017-10-09T09:51:43.015Z,5.5
2017-10-09T09:52:45.448Z,5.6
2017-10-09T09:53:48.223Z,5.6
2017-10-09T09:54:50.655Z,5.6
2017-10-09T09:55:53.076Z,5.6
2017-10-09T09:56:55.512Z,5.5
2017-10-09T09:57:57.939Z,5.5
2017-10-09T09:59:00.368Z,5.6
2017-10-09T10:00:02.811Z,5.5
2017-10-09T10:01:05.242Z,5.5
2017-10-09T10:02:07.681Z,5.5
2017-10-09T10:03:10.126Z,5.5
2017-10-09T10:04:12.553Z,5.5
2017-10-09T10:05:14.993Z,5.5
2017-10-09T10:06:17.432Z,5.5
2017-10-09T10:07:19.859Z,5.5
2017-10-09T10:08:22.289Z,5.5
2017-10-09T10:09:25.108Z,5.5
2017-10-09T10:10:27.883Z,5.5
2017-10-09T10:11:30.339Z,5.5
2017-10-09T10:12:32.767Z,5.5
2017-10-09T10:13:35.198Z,5.5
2017-10-09T10:14:37.625Z,5.5
2017-10-09T10:15:40.397Z,5.5
2017-10-09T10:16:42.834Z,5.5
2017-10-09T10:17:45.612Z,5.4
2017-10-09T10:18:48.042Z,5.4
2017-10-09T10:19:50.473Z,5.5
2017-10-09T10:20:52.936Z,5.4
2017-10-09T10:21:55.719Z,5.5
2017-10-09T10:22:58.144Z,5.4
2017-10-09T10:24:00.576Z,5.4
2017-10-09T10:25:03.004Z,5.4
2017-10-09T10:26:05.786Z,5.4
2017-10-09T10:27:08.205Z,5.4
2017-10-09T10:28:10.650Z,5.4
2017-10-09T10:29:13.087Z,5.4
2017-10-09T10:30:15.500Z,5.5
2017-10-09T10:31:17.933Z,5.4
2017-10-09T10:32:20.712Z,5.5
2017-10-09T10:33:23.138Z,5.4
2017-10-09T10:34:25.914Z,5.4
2017-10-09T10:35:28.340Z,5.4
2017-10-09T10:36:30.764Z,5.4
2017-10-09T10:37:33.213Z,5.4
2017-10-09T10:38:35.645Z,5.5
2017-10-09T10:39:38.067Z,5.4
2017-10-09T10:40:40.498Z,5.4
2017-10-09T10:41:42.919Z,5.5
2017-10-09T10:42:45.704Z,5.5
2017-10-09T10:43:48.131Z,5.5
2017-10-09T10:44:50.553Z,5.5
2017-10-09T10:45:52.986Z,5.4
2017-10-09T10:46:55.419Z,5.4
2017-10-09T10:47:57.856Z,5.5
2017-10-09T10:49:00.295Z,5.5
2017-10-09T10:50:02.729Z,5.5
2017-10-09T10:51:05.164Z,5.5
2017-10-09T10:52:07.600Z,5.5
2017-10-09T10:53:10.030Z,5.5
2017-10-09T10:54:12.455Z,5.5
2017-10-09T10:55:14.896Z,5.4
2017-10-09T10:56:17.334Z,5.5
2017-10-09T10:57:19.769Z,5.5
2017-10-09T10:58:22.203Z,5.5
2017-10-09T10:59:24.630Z,5.5
2017-10-09T11:00:27.056Z,5.5
2017-10-09T11:01:29.503Z,5.5
2017-10-09T11:02:32.271Z,5.5
2017-10-09T11:03:34.688Z,5.5
2017-10-09T11:04:37.125Z,5.5
2017-10-09T11:05:39.551Z,5.5
2017-10-09T11:06:41.987Z,5.5
2017-10-09T11:07:44.429Z,5.5
2017-10-09T11:08:46.846Z,5.5
2017-10-09T11:09:49.281Z,5.5
2017-10-09T11:10:51.715Z,5.5
2017-10-09T11:11:54.145Z,5.6
2017-10-09T11:12:56.580Z,5.6
2017-10-09T11:13:59.016Z,5.6
2017-10-09T11:15:01.781Z,5.6
2017-10-09T11:16:04.227Z,5.7
2017-10-09T11:17:06.670Z,5.7
2017-10-09T11:18:09.097Z,5.7
2017-10-09T11:19:11.537Z,5.7
2017-10-09T11:20:13.970Z,5.7
2017-10-09T11:21:16.401Z,5.7
2017-10-09T11:22:18.833Z,5.7
2017-10-09T11:23:21.274Z,5.7
2017-10-09T11:24:23.713Z,5.7
2017-10-09T11:25:26.146Z,5.8
2017-10-09T11:26:28.587Z,5.7
2017-10-09T11:27:31.370Z,5.8
2017-10-09T11:28:33.799Z,5.7
2017-10-09T11:29:36.229Z,5.8
2017-10-09T11:30:38.665Z,5.8
2017-10-09T11:31:41.096Z,5.7
2017-10-09T11:32:43.533Z,5.7
2017-10-09T11:33:45.975Z,5.8
2017-10-09T11:34:48.400Z,5.7
2017-10-09T11:35:50.843Z,5.7
2017-10-09T11:36:53.280Z,5.7
2017-10-09T11:37:55.722Z,5.7
2017-10-09T11:38:58.163Z,5.7
2017-10-09T11:40:00.592Z,5.7
2017-10-09T11:41:03.026Z,5.7
2017-10-09T11:42:05.482Z,5.7
2017-10-09T11:43:07.921Z,5.7
2017-10-09T11:44:10.351Z,5.7
2017-10-09T11:45:13.134Z,5.7
2017-10-09T11:46:15.564Z,5.7
2017-10-09T11:47:18.000Z,5.7
2017-10-09T11:48:20.440Z,5.7
2017-10-09T11:49:22.869Z,5.6
2017-10-09T11:50:25.295Z,5.6
2017-10-09T11:51:27.730Z,5.6
2017-10-09T11:52:30.167Z,5.6
2017-10-09T11:53:32.614Z,5.6
2017-10-09T11:54:35.060Z,5.6
2017-10-09T11:55:37.499Z,5.6
2017-10-09T11:56:39.928Z,5.6
2017-10-09T11:57:42.367Z,5.6
2017-10-09T11:58:44.798Z,5.6
2017-10-09T11:59:47.238Z,5.6
2017-10-09T12:00:50.006Z,5.6
2017-10-09T12:01:52.433Z,5.6
2017-10-09T12:02:54.871Z,5.6
2017-10-09T12:03:57.308Z,5.5
2017-10-09T12:04:59.748Z,5.6
2017-10-09T12:06:02.178Z,5.5
2017-10-09T12:07:04.607Z,5.5
2017-10-09T12:08:07.383Z,5.5
2017-10-09T12:09:09.812Z,5.5
2017-10-09T12:10:12.245Z,5.5
2017-10-09T12:11:14.682Z,5.5
2017-10-09T12:12:17.118Z,5.5
2017-10-09T12:13:19.545Z,5.5
2017-10-09T12:14:21.994Z,5.5
2017-10-09T12:15:24.749Z,5.5
2017-10-09T12:16:27.184Z,5.5
2017-10-09T12:17:29.622Z,5.5
2017-10-09T12:18:32.046Z,5.5
2017-10-09T12:19:34.482Z,5.5
2017-10-09T12:20:36.914Z,5.5
2017-10-09T12:21:39.688Z,5.5
2017-10-09T12:22:42.461Z,5.5
2017-10-09T12:23:44.892Z,5.5
2017-10-09T12:24:47.337Z,5.5
2017-10-09T12:25:49.763Z,5.5
2017-10-09T12:26:52.191Z,5.5
2017-10-09T12:27:54.630Z,5.5
2017-10-09T12:28:57.056Z,5.5
2017-10-09T12:29:59.493Z,5.5
2017-10-09T12:31:01.924Z,5.5
2017-10-09T12:32:04.354Z,5.6
2017-10-09T12:33:06.789Z,5.6
2017-10-09T12:34:09.229Z,5.6
2017-10-09T12:35:12.007Z,5.6
2017-10-09T12:36:14.434Z,5.7
2017-10-09T12:37:16.868Z,5.6
2017-10-09T12:38:19.307Z,5.6
2017-10-09T12:39:21.747Z,5.6
2017-10-09T12:40:24.188Z,5.7
2017-10-09T12:41:26.952Z,5.7
2017-10-09T12:42:29.740Z,5.6
2017-10-09T12:43:32.559Z,5.7
2017-10-09T12:44:35.186Z,5.6
2017-10-09T12:45:37.618Z,5.7
2017-10-09T12:46:40.052Z,5.7
2017-10-09T12:47:42.483Z,5.7
2017-10-09T12:48:44.934Z,5.7
2017-10-09T12:49:47.766Z,5.7
2017-10-09T12:50:50.199Z,5.8
2017-10-09T12:51:52.632Z,5.8
2017-10-09T12:52:55.074Z,5.8
2017-10-09T12:53:57.514Z,5.8
2017-10-09T12:54:59.945Z,5.8
2017-10-09T12:56:02.388Z,5.9
2017-10-09T12:57:04.824Z,5.9
2017-10-09T12:58:07.263Z,5.9
2017-10-09T12:59:09.713Z,5.9
2017-10-09T13:00:12.143Z,5.9
2017-10-09T13:01:14.587Z,6
2017-10-09T13:02:17.030Z,6
2017-10-09T13:03:19.460Z,6
2017-10-09T13:04:21.898Z,6
2017-10-09T13:05:24.351Z,6
2017-10-09T13:06:26.783Z,6
2017-10-09T13:07:29.576Z,6
2017-10-09T13:08:32.027Z,6
2017-10-09T13:09:34.465Z,6
2017-10-09T13:10:36.971Z,6
2017-10-09T13:11:39.843Z,6.1
2017-10-09T13:12:42.467Z,6.1
2017-10-09T13:13:47.791Z,6.1
2017-10-09T13:14:52.536Z,6.1
2017-10-09T13:15:58.816Z,6.1
2017-10-09T13:17:02.891Z,6.1
2017-10-09T13:18:09.122Z,6.1
2017-10-09T13:19:14.358Z,6
2017-10-09T13:20:21.698Z,6.1
2017-10-09T13:21:25.340Z,6
2017-10-09T13:22:29.152Z,6.1
2017-10-09T13:23:34.159Z,6.1
2017-10-09T13:24:38.179Z,6
2017-10-09T13:25:44.610Z,6.1
2017-10-09T13:26:48.239Z,6.1
2017-10-09T13:27:50.692Z,6.1
2017-10-09T13:28:53.199Z,6.1
2017-10-09T13:29:55.927Z,6.1
2017-10-09T13:30:58.477Z,6.1
2017-10-09T13:32:01.235Z,6.1
2017-10-09T13:33:03.728Z,6.1
2017-10-09T13:34:06.170Z,6
2017-10-09T13:35:08.947Z,6
2017-10-09T13:36:11.388Z,6.1
2017-10-09T13:37:13.825Z,6
2017-10-09T13:38:16.267Z,6
2017-10-09T13:39:18.711Z,6
2017-10-09T13:40:21.137Z,6
2017-10-09T13:41:23.580Z,6
2017-10-09T13:42:26.007Z,6
2017-10-09T13:43:28.452Z,6
2017-10-09T13:44:30.891Z,6
2017-10-09T13:45:33.336Z,6
2017-10-09T13:46:35.762Z,6.1
2017-10-09T13:47:38.210Z,6
2017-10-09T13:48:40.659Z,6
2017-10-09T13:49:43.120Z,6
2017-10-09T13:50:45.628Z,6
2017-10-09T13:51:48.064Z,6
2017-10-09T13:52:50.507Z,6
2017-10-09T13:53:53.019Z,6
2017-10-09T13:54:55.504Z,6
2017-10-09T13:55:58.207Z,6
2017-10-09T13:57:00.925Z,6
2017-10-09T13:58:03.836Z,6
2017-10-09T13:59:06.390Z,6
2017-10-09T14:00:08.893Z,5.9
2017-10-09T14:01:11.542Z,6
2017-10-09T14:02:14.098Z,6
2017-10-09T14:03:16.645Z,6
2017-10-09T14:04:19.108Z,6
2017-10-09T14:05:21.893Z,5.9
2017-10-09T14:06:24.323Z,5.9
2017-10-09T14:07:26.758Z,5.9
2017-10-09T14:08:29.205Z,5.9
2017-10-09T14:09:31.648Z,5.9
2017-10-09T14:10:34.093Z,5.9
2017-10-09T14:11:36.539Z,5.9
2017-10-09T14:12:38.964Z,5.9
2017-10-09T14:13:41.413Z,5.9
2017-10-09T14:14:43.851Z,5.9
2017-10-09T14:15:46.621Z,5.9
2017-10-09T14:16:49.061Z,5.9
2017-10-09T14:17:51.496Z,5.9
2017-10-09T14:18:53.930Z,5.9
2017-10-09T14:19:56.386Z,5.9
2017-10-09T14:20:59.308Z,5.8
2017-10-09T14:22:01.800Z,5.9
2017-10-09T14:23:04.227Z,5.9
2017-10-09T14:24:06.694Z,5.9